Time;durP1;ratioP1;P1;durP2;ratioP2;P2;SDS_P1;SDS_P2;PMS_P1;PMS_P2;Temp;Humidity;BMP_temperature;BMP_pressure;BME280_temperature;BME280_humidity;BME280_pressure;Samples;Min_cycle;Max_cycle;Signal;HPM_P1;HPM_P2
2021/09/06 00:00:01;;;;;;;;;24.50;24.25;30.40;28.60;;;;;;692112;28;6156;-81
2021/09/06 00:00:24;;;;;;;;;25.20;24.20;30.50;28.80;;;;;;691873;28;6230;-81
2021/09/06 00:00:45;;;;;;;;;27.25;26.25;30.40;28.80;;;;;;691693;28;6874;-81
2021/09/06 00:01:06;;;;;;;;;26.00;25.00;30.50;28.80;;;;;;691916;28;6042;-79
2021/09/06 00:01:27;;;;;;;;;34.50;30.75;30.50;28.80;;;;;;692150;28;5944;-81
2021/09/06 00:01:47;;;;;;;;;27.20;25.80;30.50;28.80;;;;;;691749;28;6120;-81
2021/09/06 00:02:08;;;;;;;;;26.67;26.00;30.50;28.80;;;;;;691991;28;6433;-80
2021/09/06 00:02:29;;;;;;;;;26.75;25.75;30.50;28.80;;;;;;692066;28;6254;-81
2021/09/06 00:02:49;;;;;;;;;24.50;24.25;30.50;28.70;;;;;;691744;28;5935;-81
2021/09/06 00:03:11;;;;;;;;;25.60;24.60;30.50;28.70;;;;;;692072;28;6112;-81
2021/09/06 00:03:31;;;;;;;;;29.00;27.00;30.50;28.70;;;;;;691990;28;5986;-81
2021/09/06 00:03:53;;;;;;;;;26.75;25.00;30.50;28.50;;;;;;691880;28;5978;-81
2021/09/06 00:04:14;;;;;;;;;25.60;24.40;30.50;28.30;;;;;;691486;28;8050;-81
2021/09/06 00:04:35;;;;;;;;;31.00;27.75;30.50;28.50;;;;;;691847;28;5928;-80
2021/09/06 00:04:56;;;;;;;;;27.40;27.40;30.50;28.60;;;;;;691680;28;6674;-81
2021/09/06 00:05:17;;;;;;;;;24.60;22.60;30.50;27.80;;;;;;691516;28;6133;-81
2021/09/06 00:05:38;;;;;;;;;27.75;25.00;30.50;28.50;;;;;;691644;28;6290;-81
2021/09/06 00:05:58;;;;;;;;;26.00;25.00;30.60;28.60;;;;;;691738;28;6796;-81
2021/09/06 00:06:22;;;;;;;;;29.00;28.25;30.50;28.40;;;;;;692735;28;6042;-80
2021/09/06 00:06:43;;;;;;;;;27.50;26.50;30.60;28.40;;;;;;693695;28;6296;-81
2021/09/06 00:07:04;;;;;;;;;26.00;24.00;30.60;28.40;;;;;;694696;28;6724;-80
2021/09/06 00:07:25;;;;;;;;;26.00;25.00;30.60;28.40;;;;;;694670;28;5996;-80
2021/09/06 00:07:47;;;;;;;;;27.40;26.40;30.60;28.50;;;;;;691590;28;6489;-80
2021/09/06 00:08:08;;;;;;;;;28.60;25.00;30.60;28.50;;;;;;691693;28;6314;-81
2021/09/06 00:08:29;;;;;;;;;26.50;26.00;30.60;28.40;;;;;;691319;28;5946;-80
2021/09/06 00:08:50;;;;;;;;;22.00;21.60;30.60;28.40;;;;;;691646;28;6042;-81
2021/09/06 00:09:10;;;;;;;;;25.00;24.50;30.60;28.70;;;;;;688361;28;6109;-80
2021/09/06 00:09:32;;;;;;;;;30.40;28.60;30.60;28.10;;;;;;689590;28;7009;-80
2021/09/06 00:10:00;;;;;;;;;27.20;26.20;30.60;28.20;;;;;;691683;28;6145;-81
2021/09/06 00:10:42;;;;;;;;;28.00;26.50;30.60;28.20;;;;;;691542;28;6453;-80
2021/09/06 00:11:08;;;;;;;;;25.60;24.60;30.60;28.00;;;;;;690487;28;6594;-80
2021/09/06 00:11:29;;;;;;;;;24.40;24.40;30.60;27.90;;;;;;691567;28;6738;-80
2021/09/06 00:11:49;;;;;;;;;24.50;24.50;30.60;28.20;;;;;;691454;28;6015;-79
2021/09/06 00:12:10;;;;;;;;;23.60;23.60;30.60;28.30;;;;;;691635;28;6118;-81
2021/09/06 00:12:31;;;;;;;;;29.00;26.00;30.60;28.40;;;;;;691894;28;6034;-81
2021/09/06 00:12:51;;;;;;;;;30.50;29.50;30.60;28.30;;;;;;691685;28;6047;-82
2021/09/06 00:13:17;;;;;;;;;28.50;27.00;30.60;28.20;;;;;;691926;28;6259;-79
2021/09/06 00:13:40;;;;;;;;;32.00;30.00;30.60;28.20;;;;;;691878;28;6761;-81
2021/09/06 00:14:00;;;;;;;;;26.20;24.20;30.60;28.20;;;;;;691967;28;6785;-81
2021/09/06 00:14:22;;;;;;;;;28.00;26.20;30.60;28.20;;;;;;692031;28;6044;-81
2021/09/06 00:14:43;;;;;;;;;25.40;25.40;30.60;28.30;;;;;;691626;28;6475;-80
2021/09/06 00:15:04;;;;;;;;;28.33;26.67;30.60;28.30;;;;;;691993;28;5995;-82
2021/09/06 00:15:26;;;;;;;;;31.00;27.50;30.60;28.50;;;;;;692107;28;6421;-80
2021/09/06 00:15:48;;;;;;;;;27.00;24.40;30.60;28.30;;;;;;691599;28;6338;-81
2021/09/06 00:16:09;;;;;;;;;25.00;24.00;30.60;28.30;;;;;;691608;28;6512;-81
2021/09/06 00:16:31;;;;;;;;;20.80;20.80;30.60;28.00;;;;;;691838;28;6775;-80
2021/09/06 00:16:52;;;;;;;;;26.00;24.00;30.60;27.90;;;;;;691641;28;6486;-79
2021/09/06 00:17:12;;;;;;;;;25.00;23.00;30.60;28.00;;;;;;688905;28;6334;-81
2021/09/06 00:17:33;;;;;;;;;26.00;25.25;30.60;28.10;;;;;;689903;28;6023;-80
2021/09/06 00:17:54;;;;;;;;;28.00;27.00;30.60;28.20;;;;;;691725;28;6141;-80
2021/09/06 00:18:16;;;;;;;;;24.00;22.00;30.60;28.30;;;;;;691595;28;6215;-80
2021/09/06 00:18:37;;;;;;;;;25.00;24.00;30.60;28.30;;;;;;691590;28;8000;-80
2021/09/06 00:18:57;;;;;;;;;29.00;24.80;30.60;28.20;;;;;;691865;28;6285;-80
2021/09/06 00:19:21;;;;;;;;;29.40;27.40;30.60;28.40;;;;;;692061;28;6148;-79
2021/09/06 00:19:41;;;;;;;;;24.20;23.20;30.60;28.20;;;;;;691367;28;8318;-79
2021/09/06 00:20:03;;;;;;;;;23.00;23.00;30.60;27.90;;;;;;689120;28;6657;-80
2021/09/06 00:20:26;;;;;;;;;27.00;26.00;30.60;28.00;;;;;;689042;28;6680;-80
2021/09/06 00:20:46;;;;;;;;;30.50;28.75;30.60;28.00;;;;;;688908;28;6471;-80
2021/09/06 00:21:08;;;;;;;;;24.50;23.50;30.60;28.00;;;;;;688852;28;6680;-80
2021/09/06 00:21:31;;;;;;;;;26.00;26.00;30.60;28.10;;;;;;689336;28;6004;-81
2021/09/06 00:21:52;;;;;;;;;27.00;26.25;30.60;28.10;;;;;;691587;28;6840;-80
2021/09/06 00:22:13;;;;;;;;;30.25;28.00;30.60;28.20;;;;;;691906;28;6276;-80
2021/09/06 00:22:34;;;;;;;;;28.00;28.00;30.60;28.20;;;;;;692093;28;5929;-79
2021/09/06 00:22:54;;;;;;;;;27.00;23.00;30.60;28.00;;;;;;691882;28;6808;-80
2021/09/06 00:23:15;;;;;;;;;25.40;24.40;30.60;28.00;;;;;;691833;28;6034;-79
2021/09/06 00:23:37;;;;;;;;;24.25;24.25;30.60;28.00;;;;;;691848;28;5945;-79
2021/09/06 00:23:58;;;;;;;;;25.80;24.40;30.60;28.40;;;;;;691387;28;6561;-80
2021/09/06 00:24:19;;;;;;;;;26.00;23.80;30.60;28.20;;;;;;691481;28;6063;-79
2021/09/06 00:24:40;;;;;;;;;27.40;24.60;30.60;28.10;;;;;;691759;28;6179;-80
2021/09/06 00:25:01;;;;;;;;;31.25;29.25;30.60;28.10;;;;;;691879;28;6026;-80
2021/09/06 00:25:22;;;;;;;;;26.00;26.00;30.60;28.10;;;;;;691736;28;6223;-80
2021/09/06 00:25:43;;;;;;;;;28.00;26.50;30.60;28.10;;;;;;691682;28;6081;-80
2021/09/06 00:26:04;;;;;;;;;26.50;25.00;30.60;28.20;;;;;;691446;28;6102;-80
2021/09/06 00:26:25;;;;;;;;;24.25;24.00;30.60;28.10;;;;;;691723;28;6473;-79
2021/09/06 00:26:47;;;;;;;;;24.00;23.60;30.60;28.30;;;;;;691664;28;6061;-80
2021/09/06 00:27:07;;;;;;;;;27.60;25.60;30.60;28.00;;;;;;691485;28;6626;-79
2021/09/06 00:27:28;;;;;;;;;30.25;27.50;30.60;28.10;;;;;;691756;28;6035;-78
2021/09/06 00:27:49;;;;;;;;;27.75;25.50;30.60;28.00;;;;;;691846;28;6684;-79
2021/09/06 00:28:12;;;;;;;;;26.60;24.60;30.60;28.10;;;;;;691797;28;6123;-80
2021/09/06 00:28:33;;;;;;;;;25.75;24.75;30.60;28.00;;;;;;691869;28;6221;-80
2021/09/06 00:28:55;;;;;;;;;26.40;23.00;30.60;27.80;;;;;;691861;28;6450;-81
2021/09/06 00:29:15;;;;;;;;;26.80;24.00;30.60;27.90;;;;;;691177;28;6622;-81
2021/09/06 00:29:36;;;;;;;;;28.00;25.50;30.60;28.00;;;;;;691883;28;6473;-80
2021/09/06 00:29:57;;;;;;;;;26.00;24.50;30.60;28.00;;;;;;692134;28;6232;-79
2021/09/06 00:30:17;;;;;;;;;24.50;22.50;30.60;28.30;;;;;;691532;28;5954;-82
2021/09/06 00:30:38;;;;;;;;;21.60;21.00;30.60;28.10;;;;;;691693;28;6046;-78
2021/09/06 00:31:00;;;;;;;;;22.00;21.00;30.60;28.00;;;;;;691576;28;5924;-76
2021/09/06 00:31:20;;;;;;;;;24.60;22.60;30.60;27.80;;;;;;691718;28;6230;-79
2021/09/06 00:31:41;;;;;;;;;26.50;26.00;30.60;27.90;;;;;;691802;28;6622;-79
2021/09/06 00:32:04;;;;;;;;;25.00;23.60;30.60;27.90;;;;;;692006;28;6115;-79
2021/09/06 00:32:25;;;;;;;;;27.20;24.80;30.60;27.80;;;;;;691456;28;6678;-79
2021/09/06 00:32:47;;;;;;;;;26.00;23.00;30.60;28.00;;;;;;691505;28;5913;-80
2021/09/06 00:33:08;;;;;;;;;23.00;22.50;30.60;27.90;;;;;;691911;28;6367;-79
2021/09/06 00:33:28;;;;;;;;;27.75;25.00;30.60;27.90;;;;;;692021;28;6025;-80
2021/09/06 00:33:49;;;;;;;;;26.75;24.50;30.60;28.00;;;;;;692101;28;5979;-80
2021/09/06 00:34:11;;;;;;;;;26.80;25.80;30.60;28.00;;;;;;691857;28;6586;-80
2021/09/06 00:34:32;;;;;;;;;22.80;21.60;30.60;27.90;;;;;;691750;28;6118;-79
2021/09/06 00:34:52;;;;;;;;;30.75;27.00;30.60;28.10;;;;;;691932;28;6046;-81
2021/09/06 00:35:13;;;;;;;;;28.40;25.00;30.50;27.90;;;;;;691650;28;6073;-77
2021/09/06 00:35:34;;;;;;;;;30.75;28.00;30.60;27.80;;;;;;691808;28;6615;-77
2021/09/06 00:35:57;;;;;;;;;24.25;24.00;30.50;27.80;;;;;;692019;28;6009;-78
2021/09/06 00:36:18;;;;;;;;;25.20;24.20;30.50;27.90;;;;;;689648;28;6612;-80
2021/09/06 00:36:38;;;;;;;;;23.80;22.80;30.50;27.90;;;;;;691797;28;6027;-80
2021/09/06 00:36:59;;;;;;;;;23.75;22.00;30.50;27.90;;;;;;691983;28;6118;-81
2021/09/06 00:37:20;;;;;;;;;24.25;24.00;30.50;28.00;;;;;;692195;28;6335;-81
2021/09/06 00:37:41;;;;;;;;;26.00;26.00;30.60;27.90;;;;;;692331;28;6242;-82
2021/09/06 00:38:02;;;;;;;;;26.80;24.80;30.50;27.90;;;;;;692780;28;6655;-80
2021/09/06 00:38:23;;;;;;;;;25.40;22.80;30.50;27.90;;;;;;694222;28;6092;-80
2021/09/06 00:38:44;;;;;;;;;22.60;20.00;30.50;27.80;;;;;;694212;28;6022;-80
2021/09/06 00:39:05;;;;;;;;;24.60;23.60;30.50;27.90;;;;;;694761;28;6011;-81
2021/09/06 00:39:26;;;;;;;;;24.00;22.00;30.50;27.80;;;;;;694571;28;5984;-79
2021/09/06 00:39:46;;;;;;;;;22.50;21.00;30.60;27.80;;;;;;694978;28;6153;-80
2021/09/06 00:40:08;;;;;;;;;21.50;18.50;30.50;28.00;;;;;;694009;28;6229;-82
2021/09/06 00:40:29;;;;;;;;;26.25;23.00;30.50;27.90;;;;;;693932;28;6331;-79
2021/09/06 00:40:50;;;;;;;;;23.40;23.00;30.50;27.70;;;;;;694142;28;6109;-83
2021/09/06 00:41:11;;;;;;;;;20.20;20.20;30.50;27.60;;;;;;694110;28;6227;-82
2021/09/06 00:41:32;;;;;;;;;26.60;25.40;30.50;27.80;;;;;;694809;28;5900;-81
2021/09/06 00:41:53;;;;;;;;;27.00;24.50;30.50;27.90;;;;;;693832;28;6001;-80
2021/09/06 00:42:14;;;;;;;;;21.00;21.00;30.50;28.00;;;;;;694074;28;6074;-80
2021/09/06 00:42:35;;;;;;;;;25.20;22.60;30.50;27.90;;;;;;694019;28;6345;-82
2021/09/06 00:42:55;;;;;;;;;22.40;20.00;30.50;27.80;;;;;;693647;28;6021;-80
2021/09/06 00:43:17;;;;;;;;;22.00;21.00;30.50;27.80;;;;;;694176;28;5899;-81
2021/09/06 00:43:40;;;;;;;;;22.00;21.00;30.50;28.00;;;;;;693641;28;6898;-83
2021/09/06 00:44:02;;;;;;;;;28.75;27.50;30.50;27.90;;;;;;694068;28;6500;-83
2021/09/06 00:44:22;;;;;;;;;28.40;25.40;30.50;27.90;;;;;;694120;28;6438;-80
2021/09/06 00:44:43;;;;;;;;;27.50;22.00;30.50;28.00;;;;;;693394;28;6087;-81
2021/09/06 00:45:05;;;;;;;;;24.50;21.00;30.50;27.90;;;;;;693686;28;6019;-79
2021/09/06 00:45:25;;;;;;;;;24.00;21.40;30.50;27.90;;;;;;691768;28;6323;-80
2021/09/06 00:45:47;;;;;;;;;22.40;21.40;30.50;28.00;;;;;;693384;28;6034;-81
2021/09/06 00:46:07;;;;;;;;;23.00;22.50;30.50;27.80;;;;;;690940;28;5873;-80
2021/09/06 00:46:28;;;;;;;;;23.50;22.50;30.50;27.70;;;;;;689679;28;6114;-81
2021/09/06 00:46:51;;;;;;;;;22.00;21.00;30.50;27.70;;;;;;691151;28;6243;-79
2021/09/06 00:47:11;;;;;;;;;20.60;20.20;30.50;27.70;;;;;;691313;28;6749;-79
2021/09/06 00:47:34;;;;;;;;;24.75;23.75;30.50;27.80;;;;;;693910;28;5413;-80
2021/09/06 00:47:55;;;;;;;;;28.60;24.40;30.50;27.70;;;;;;693975;28;6605;-79
2021/09/06 00:48:19;;;;;;;;;24.00;20.60;30.50;27.70;;;;;;694110;28;6115;-79
2021/09/06 00:48:39;;;;;;;;;23.00;21.50;30.50;27.90;;;;;;693777;28;6273;-78
2021/09/06 00:49:00;;;;;;;;;20.00;19.00;30.50;27.70;;;;;;692117;28;6012;-80
2021/09/06 00:49:21;;;;;;;;;21.25;20.00;30.50;27.80;;;;;;691897;28;5990;-82
2021/09/06 00:49:42;;;;;;;;;26.25;26.25;30.40;27.80;;;;;;693411;28;6038;-79
2021/09/06 00:50:06;;;;;;;;;25.00;24.00;30.40;27.70;;;;;;694075;28;6100;-82
2021/09/06 00:50:27;;;;;;;;;24.75;22.75;30.50;28.00;;;;;;693556;28;6366;-78
2021/09/06 00:50:48;;;;;;;;;21.75;20.75;30.50;28.20;;;;;;692861;28;6250;-79
2021/09/06 00:51:09;;;;;;;;;18.40;18.00;30.50;28.10;;;;;;692338;28;6480;-79
2021/09/06 00:51:31;;;;;;;;;18.40;18.40;30.50;27.90;;;;;;693163;28;6621;-80
2021/09/06 00:51:53;;;;;;;;;22.50;20.50;30.50;27.80;;;;;;693597;28;6355;-80
2021/09/06 00:52:13;;;;;;;;;23.40;23.00;30.50;27.80;;;;;;693787;28;6069;-79
2021/09/06 00:52:37;;;;;;;;;22.00;20.50;30.50;27.80;;;;;;693580;28;6020;-81
2021/09/06 00:52:58;;;;;;;;;22.75;21.75;30.50;27.90;;;;;;692834;28;6561;-80
2021/09/06 00:53:19;;;;;;;;;25.00;23.00;30.50;27.90;;;;;;690899;28;6184;-83
2021/09/06 00:53:40;;;;;;;;;29.75;24.50;30.50;27.90;;;;;;692457;28;6592;-79
2021/09/06 00:54:00;;;;;;;;;23.50;21.50;30.50;27.70;;;;;;693491;28;6046;-79
2021/09/06 00:54:21;;;;;;;;;20.00;19.00;30.50;27.80;;;;;;692883;28;6787;-80
2021/09/06 00:54:43;;;;;;;;;16.75;16.75;30.50;28.00;;;;;;693225;28;5983;-80
2021/09/06 00:55:05;;;;;;;;;19.60;18.40;30.50;28.00;;;;;;694112;28;6439;-79
2021/09/06 00:55:25;;;;;;;;;19.20;17.60;30.50;27.30;;;;;;692076;28;6698;-78
2021/09/06 00:55:46;;;;;;;;;21.40;20.20;30.40;27.60;;;;;;693327;28;6103;-79
2021/09/06 00:56:08;;;;;;;;;24.50;22.00;30.40;27.80;;;;;;693229;28;6034;-78
2021/09/06 00:56:28;;;;;;;;;21.00;20.00;30.40;28.50;;;;;;691673;28;6115;-82
2021/09/06 00:56:51;;;;;;;;;23.75;23.00;30.40;27.70;;;;;;691837;28;5998;-82
2021/09/06 00:57:11;;;;;;;;;22.50;22.00;30.40;27.70;;;;;;692565;28;6759;-81
2021/09/06 00:57:32;;;;;;;;;22.00;22.00;30.40;27.00;;;;;;694742;28;5903;-82
2021/09/06 00:57:54;;;;;;;;;23.60;22.40;30.40;27.80;;;;;;694772;28;6015;-81
2021/09/06 00:58:15;;;;;;;;;27.00;24.00;30.40;27.90;;;;;;694101;28;5979;-81
2021/09/06 00:58:37;;;;;;;;;27.60;25.00;30.40;28.10;;;;;;694222;28;6090;-81
2021/09/06 00:58:57;;;;;;;;;28.40;23.60;30.40;27.90;;;;;;694131;28;6693;-82
2021/09/06 00:59:20;;;;;;;;;20.00;19.00;30.40;27.90;;;;;;694436;28;5485;-82
2021/09/06 00:59:42;;;;;;;;;22.75;21.75;30.40;27.70;;;;;;693988;28;6823;-81
2021/09/06 01:00:08;;;;;;;;;27.50;25.50;30.40;28.00;;;;;;692068;28;6431;-82
2021/09/06 01:00:29;;;;;;;;;25.00;23.20;30.40;28.00;;;;;;691826;28;7637;-83
2021/09/06 01:00:50;;;;;;;;;21.25;19.25;30.40;28.00;;;;;;691005;28;6228;-82
2021/09/06 01:01:11;;;;;;;;;21.00;20.25;30.40;27.90;;;;;;688122;28;6716;-83
2021/09/06 01:01:31;;;;;;;;;24.00;20.00;30.40;27.70;;;;;;688911;28;6119;-84
2021/09/06 01:01:52;;;;;;;;;23.00;21.80;30.50;27.80;;;;;;685884;28;6047;-80
2021/09/06 01:02:13;;;;;;;;;24.25;21.75;30.40;27.70;;;;;;686058;28;6078;-83
2021/09/06 01:02:34;;;;;;;;;21.00;20.25;30.40;27.90;;;;;;685972;28;5555;-81
2021/09/06 01:02:55;;;;;;;;;22.20;20.60;30.40;27.80;;;;;;686883;28;6591;-81
2021/09/06 01:03:16;;;;;;;;;26.40;25.00;30.40;27.80;;;;;;687537;28;6298;-78
2021/09/06 01:03:36;;;;;;;;;25.00;23.25;30.40;28.20;;;;;;689216;28;6052;-80
2021/09/06 01:03:57;;;;;;;;;23.25;22.25;30.40;28.00;;;;;;691647;28;6000;-82
2021/09/06 01:04:18;;;;;;;;;20.60;20.00;30.40;28.20;;;;;;691261;28;6758;-83
2021/09/06 01:04:38;;;;;;;;;20.00;19.00;30.40;28.30;;;;;;688532;28;6226;-82
2021/09/06 01:04:59;;;;;;;;;23.00;22.50;30.40;28.30;;;;;;688938;28;6086;-81
2021/09/06 01:05:20;;;;;;;;;21.60;20.60;30.40;28.30;;;;;;689278;28;6569;-82
2021/09/06 01:05:41;;;;;;;;;19.50;18.75;30.40;28.30;;;;;;691748;28;6088;-82
2021/09/06 01:06:02;;;;;;;;;26.20;20.80;30.40;28.20;;;;;;691374;28;6062;-82
2021/09/06 01:06:23;;;;;;;;;22.00;20.00;30.40;28.30;;;;;;691806;28;6024;-83
2021/09/06 01:06:44;;;;;;;;;28.50;24.50;30.40;28.30;;;;;;691906;28;5425;-82
2021/09/06 01:07:05;;;;;;;;;25.00;22.00;30.40;28.60;;;;;;691839;28;6112;-81
2021/09/06 01:07:25;;;;;;;;;19.80;19.20;30.40;28.80;;;;;;692025;28;6078;-83
2021/09/06 01:07:46;;;;;;;;;25.50;24.00;30.40;28.80;;;;;;692062;28;6656;-82
2021/09/06 01:08:07;;;;;;;;;21.00;21.00;30.40;28.80;;;;;;691544;28;6031;-82
2021/09/06 01:08:28;;;;;;;;;24.25;21.75;30.40;29.10;;;;;;691994;28;6075;-80
2021/09/06 01:08:48;;;;;;;;;28.25;25.00;30.40;29.10;;;;;;688911;28;6217;-84
2021/09/06 01:09:09;;;;;;;;;29.25;24.25;30.40;29.20;;;;;;689026;28;6246;-81
2021/09/06 01:09:30;;;;;;;;;24.50;23.75;30.40;29.20;;;;;;689154;28;6193;-80
2021/09/06 01:09:50;;;;;;;;;25.75;22.00;30.40;29.30;;;;;;689216;28;6726;-80
2021/09/06 01:10:14;;;;;;;;;21.50;19.50;30.40;29.10;;;;;;691414;28;5991;-82
2021/09/06 01:10:35;;;;;;;;;19.60;18.00;30.40;29.30;;;;;;691700;28;6471;-85
2021/09/06 01:10:56;;;;;;;;;20.00;17.00;30.40;29.50;;;;;;692290;28;5366;-83
2021/09/06 01:11:17;;;;;;;;;22.40;21.80;30.30;29.70;;;;;;691886;28;6660;-84
2021/09/06 01:11:37;;;;;;;;;19.60;19.40;30.40;29.60;;;;;;691758;28;6071;-83
2021/09/06 01:11:58;;;;;;;;;26.25;25.50;30.30;29.30;;;;;;692194;28;6136;-83
2021/09/06 01:12:19;;;;;;;;;24.00;22.00;30.40;29.70;;;;;;691672;28;6231;-84
2021/09/06 01:12:42;;;;;;;;;24.40;22.80;30.30;29.30;;;;;;691840;28;6690;-81
2021/09/06 01:13:03;;;;;;;;;22.60;21.20;30.40;29.30;;;;;;691738;28;6266;-81
2021/09/06 01:13:24;;;;;;;;;22.40;20.40;30.40;29.30;;;;;;691460;28;6130;-82
2021/09/06 01:13:44;;;;;;;;;22.00;20.25;30.30;29.10;;;;;;691481;28;5928;-81
2021/09/06 01:14:05;;;;;;;;;19.00;19.00;30.30;29.00;;;;;;691702;28;5912;-83
2021/09/06 01:14:26;;;;;;;;;19.00;18.00;30.30;29.00;;;;;;691830;28;6232;-82
2021/09/06 01:14:48;;;;;;;;;16.40;16.40;30.30;29.90;;;;;;688657;28;6023;-82
2021/09/06 01:15:10;;;;;;;;;22.00;21.80;30.30;29.10;;;;;;688905;28;6510;-83
2021/09/06 01:15:31;;;;;;;;;23.00;22.50;30.30;29.00;;;;;;689043;28;6796;-81
2021/09/06 01:15:52;;;;;;;;;27.00;21.00;30.30;28.90;;;;;;688901;28;6395;-82
2021/09/06 01:16:13;;;;;;;;;26.00;24.00;30.30;28.90;;;;;;688397;28;5978;-80
2021/09/06 01:16:34;;;;;;;;;20.60;18.00;30.30;29.30;;;;;;689254;28;6233;-81
2021/09/06 01:16:55;;;;;;;;;19.00;18.40;30.30;29.10;;;;;;691137;28;6015;-83
2021/09/06 01:17:16;;;;;;;;;21.40;20.00;30.30;29.00;;;;;;691966;28;6090;-82
2021/09/06 01:17:37;;;;;;;;;22.50;20.25;30.30;29.00;;;;;;691988;28;6448;-80
2021/09/06 01:17:58;;;;;;;;;23.60;22.00;30.30;29.00;;;;;;692054;28;6119;-80
2021/09/06 01:18:19;;;;;;;;;21.75;21.00;30.30;28.80;;;;;;691738;28;5922;-81
2021/09/06 01:18:40;;;;;;;;;22.60;20.60;30.40;28.80;;;;;;691218;28;6124;-80
2021/09/06 01:19:00;;;;;;;;;18.00;18.00;30.30;28.80;;;;;;691550;28;6037;-80
2021/09/06 01:19:21;;;;;;;;;21.00;19.00;30.30;28.80;;;;;;691073;28;6035;-81
2021/09/06 01:19:42;;;;;;;;;24.50;23.25;30.30;28.80;;;;;;691777;28;5905;-82
2021/09/06 01:20:04;;;;;;;;;27.80;23.80;30.30;28.70;;;;;;691670;28;6708;-82
2021/09/06 01:20:26;;;;;;;;;23.20;23.20;30.30;28.70;;;;;;690816;28;6893;-81
2021/09/06 01:20:47;;;;;;;;;19.00;17.60;30.30;28.90;;;;;;691455;28;6260;-81
2021/09/06 01:21:08;;;;;;;;;22.25;20.25;30.30;28.70;;;;;;691614;28;6215;-79
2021/09/06 01:21:29;;;;;;;;;21.00;20.00;30.30;28.80;;;;;;691552;28;6267;-80
2021/09/06 01:21:50;;;;;;;;;23.00;23.00;30.30;28.80;;;;;;691939;28;6053;-81
2021/09/06 01:22:13;;;;;;;;;26.40;24.00;30.30;28.70;;;;;;691664;28;6569;-79
2021/09/06 01:22:35;;;;;;;;;23.00;20.50;30.30;28.70;;;;;;691171;28;6860;-80
2021/09/06 01:22:56;;;;;;;;;22.00;20.50;30.30;28.70;;;;;;691621;28;6438;-81
2021/09/06 01:23:16;;;;;;;;;20.00;18.75;30.30;28.70;;;;;;691556;28;6653;-81
2021/09/06 01:23:37;;;;;;;;;19.50;19.50;30.30;28.70;;;;;;691634;28;6008;-80
2021/09/06 01:23:58;;;;;;;;;19.00;19.00;30.30;28.60;;;;;;691336;28;6235;-81
2021/09/06 01:24:19;;;;;;;;;21.00;21.00;30.30;28.60;;;;;;691492;28;6253;-81
2021/09/06 01:24:40;;;;;;;;;21.00;18.00;30.30;28.50;;;;;;688158;28;6648;-81
2021/09/06 01:25:01;;;;;;;;;24.75;20.75;30.30;28.50;;;;;;688710;28;6084;-81
2021/09/06 01:25:22;;;;;;;;;21.60;20.20;30.30;28.50;;;;;;688473;28;6760;-81
2021/09/06 01:25:42;;;;;;;;;22.50;21.00;30.30;28.50;;;;;;689206;28;6044;-80
2021/09/06 01:26:03;;;;;;;;;27.25;23.75;30.30;28.40;;;;;;691542;28;6233;-80
2021/09/06 01:26:24;;;;;;;;;22.00;21.00;30.30;28.50;;;;;;691187;28;5945;-81
2021/09/06 01:26:46;;;;;;;;;21.80;20.00;30.30;28.50;;;;;;689010;28;6071;-81
2021/09/06 01:27:06;;;;;;;;;22.75;21.00;30.30;28.40;;;;;;688795;28;6289;-82
2021/09/06 01:27:27;;;;;;;;;23.00;23.00;30.30;28.50;;;;;;689064;28;6198;-81
2021/09/06 01:27:48;;;;;;;;;19.80;19.40;30.30;28.60;;;;;;688936;28;6070;-81
2021/09/06 01:28:09;;;;;;;;;26.20;23.00;30.30;28.30;;;;;;688651;28;6055;-81
2021/09/06 01:28:30;;;;;;;;;23.25;20.25;30.30;28.30;;;;;;689061;28;6117;-81
2021/09/06 01:28:50;;;;;;;;;24.00;21.00;30.30;28.30;;;;;;688926;28;7074;-81
2021/09/06 01:29:11;;;;;;;;;21.25;19.25;30.30;28.30;;;;;;690809;28;7338;-81
2021/09/06 01:29:32;;;;;;;;;20.60;19.60;30.30;28.30;;;;;;691331;28;6017;-80
2021/09/06 01:29:53;;;;;;;;;20.20;19.40;30.30;28.50;;;;;;691531;28;6129;-81
2021/09/06 01:30:14;;;;;;;;;21.00;19.60;30.30;28.20;;;;;;691361;28;6101;-80
2021/09/06 01:30:37;;;;;;;;;19.00;19.00;30.30;28.20;;;;;;691433;28;6263;-80
2021/09/06 01:30:58;;;;;;;;;19.00;19.00;30.30;27.40;;;;;;691337;28;6878;-81
2021/09/06 01:31:19;;;;;;;;;20.75;19.75;30.30;28.30;;;;;;691796;28;6080;-80
2021/09/06 01:31:40;;;;;;;;;22.60;22.60;30.30;27.40;;;;;;691650;28;6021;-80
2021/09/06 01:32:03;;;;;;;;;18.00;17.00;30.30;28.20;;;;;;691780;28;6456;-80
2021/09/06 01:32:24;;;;;;;;;27.00;23.25;30.40;28.20;;;;;;691735;28;6614;-80
2021/09/06 01:32:45;;;;;;;;;20.25;18.50;30.30;28.10;;;;;;691691;28;5964;-80
2021/09/06 01:33:06;;;;;;;;;18.75;17.75;30.30;28.20;;;;;;691647;28;6205;-81
2021/09/06 01:33:27;;;;;;;;;21.25;21.00;30.30;28.20;;;;;;691721;28;5981;-81
2021/09/06 01:33:48;;;;;;;;;19.50;17.50;29.80;27.90;;;;;;691703;28;6082;-82
2021/09/06 01:34:10;;;;;;;;;17.40;16.80;30.30;28.20;;;;;;691074;28;6012;-84
2021/09/06 01:34:30;;;;;;;;;17.80;16.80;30.30;27.30;;;;;;691430;28;6268;-81
2021/09/06 01:34:52;;;;;;;;;20.60;19.00;30.30;28.10;;;;;;691569;28;6013;-83
2021/09/06 01:35:12;;;;;;;;;21.00;18.50;30.30;28.10;;;;;;691381;28;6106;-81
2021/09/06 01:35:33;;;;;;;;;22.75;21.75;30.40;28.10;;;;;;690902;28;6250;-82
2021/09/06 01:35:55;;;;;;;;;24.75;22.75;30.40;28.10;;;;;;691391;28;5921;-81
2021/09/06 01:36:16;;;;;;;;;18.00;17.50;30.40;28.10;;;;;;691452;28;6492;-82
2021/09/06 01:36:37;;;;;;;;;22.00;18.50;30.40;28.00;;;;;;691495;28;6724;-82
2021/09/06 01:36:59;;;;;;;;;19.20;18.00;30.30;27.90;;;;;;691372;28;6528;-82
2021/09/06 01:37:19;;;;;;;;;20.00;19.00;30.30;27.90;;;;;;691498;28;6081;-82
2021/09/06 01:37:40;;;;;;;;;20.00;19.40;30.40;28.20;;;;;;691575;28;6112;-82
2021/09/06 01:38:01;;;;;;;;;20.40;19.60;30.40;28.10;;;;;;691819;28;6112;-81
2021/09/06 01:38:21;;;;;;;;;20.80;19.80;30.30;28.30;;;;;;691613;28;6023;-81
2021/09/06 01:38:42;;;;;;;;;22.75;21.00;30.40;28.00;;;;;;691676;28;6025;-80
2021/09/06 01:39:04;;;;;;;;;18.00;18.00;30.40;28.00;;;;;;691749;28;6007;-81
2021/09/06 01:39:25;;;;;;;;;19.25;19.25;30.40;27.90;;;;;;691721;28;6446;-81
2021/09/06 01:39:47;;;;;;;;;17.75;16.75;30.30;28.00;;;;;;691412;28;5919;-81
2021/09/06 01:40:08;;;;;;;;;20.50;19.75;30.40;28.20;;;;;;691324;28;7063;-82
2021/09/06 01:40:29;;;;;;;;;20.00;20.00;30.30;28.00;;;;;;691524;28;6277;-80
2021/09/06 01:40:50;;;;;;;;;19.80;19.20;30.40;28.20;;;;;;691521;28;6109;-81
2021/09/06 01:41:11;;;;;;;;;20.00;19.00;30.40;28.00;;;;;;691466;28;6623;-80
2021/09/06 01:41:32;;;;;;;;;17.00;17.00;30.40;27.90;;;;;;691597;28;5996;-81
2021/09/06 01:41:53;;;;;;;;;19.00;18.60;30.40;28.00;;;;;;691501;28;7435;-80
2021/09/06 01:42:14;;;;;;;;;18.00;17.00;30.40;27.90;;;;;;691649;28;6079;-81
2021/09/06 01:42:35;;;;;;;;;21.60;18.80;30.40;27.90;;;;;;691444;28;6034;-81
2021/09/06 01:42:55;;;;;;;;;17.33;15.67;30.30;27.80;;;;;;691831;28;5984;-81
2021/09/06 01:43:16;;;;;;;;;17.50;17.50;30.40;28.60;;;;;;691585;28;6215;-81
2021/09/06 01:43:37;;;;;;;;;17.60;17.00;30.40;27.80;;;;;;691600;28;6015;-82
2021/09/06 01:43:57;;;;;;;;;19.40;15.40;30.30;27.80;;;;;;691736;28;6014;-82
2021/09/06 01:44:20;;;;;;;;;18.50;17.75;30.40;27.80;;;;;;691601;28;5908;-81
2021/09/06 01:44:41;;;;;;;;;18.50;17.50;30.40;27.70;;;;;;691636;28;6477;-80
2021/09/06 01:45:04;;;;;;;;;21.50;19.50;30.40;27.90;;;;;;691381;28;6154;-81
2021/09/06 01:45:25;;;;;;;;;19.00;16.40;30.40;27.80;;;;;;689659;28;6444;-82
2021/09/06 01:45:46;;;;;;;;;18.25;17.25;30.40;27.80;;;;;;691507;28;5879;-81
2021/09/06 01:46:06;;;;;;;;;19.00;17.25;30.40;27.80;;;;;;691513;28;6291;-81
2021/09/06 01:46:29;;;;;;;;;21.25;21.25;30.40;27.90;;;;;;691860;28;5976;-82
2021/09/06 01:46:50;;;;;;;;;22.00;20.00;30.40;27.80;;;;;;690954;28;6688;-82
2021/09/06 01:47:11;;;;;;;;;19.80;18.80;30.40;27.70;;;;;;691488;28;6026;-81
2021/09/06 01:47:32;;;;;;;;;17.00;16.00;30.40;27.80;;;;;;691450;28;6021;-81
2021/09/06 01:47:52;;;;;;;;;17.20;15.20;30.40;27.70;;;;;;691306;28;6073;-82
2021/09/06 01:48:13;;;;;;;;;18.60;16.80;30.40;27.70;;;;;;691433;28;6086;-82
2021/09/06 01:48:34;;;;;;;;;17.25;15.50;30.30;27.60;;;;;;691533;28;6035;-82
2021/09/06 01:48:57;;;;;;;;;18.50;17.00;30.40;28.20;;;;;;691286;28;8516;-81
2021/09/06 01:49:17;;;;;;;;;19.00;18.00;30.40;27.70;;;;;;690265;28;6415;-81
2021/09/06 01:49:38;;;;;;;;;21.75;20.75;30.40;27.70;;;;;;691533;28;6730;-82
2021/09/06 01:49:59;;;;;;;;;19.40;19.40;30.40;27.60;;;;;;691486;28;6339;-82
2021/09/06 01:50:20;;;;;;;;;19.50;17.75;30.40;27.80;;;;;;691397;28;6768;-82
2021/09/06 01:50:41;;;;;;;;;15.00;15.00;30.30;26.80;;;;;;691526;28;6121;-82